createdAt,value
2018-12-13T00:00:25.096Z,2.47
2018-12-13T00:09:26.409Z,2.28
2018-12-13T00:11:57.156Z,2.24
2018-12-13T00:14:27.828Z,2.35
2018-12-13T00:16:58.447Z,2.40
2018-12-13T00:19:29.049Z,2.37
2018-12-13T00:21:59.924Z,2.48
2018-12-13T00:24:30.772Z,2.56
2018-12-13T00:27:01.317Z,2.36
2018-12-13T00:29:31.909Z,2.42
2018-12-13T00:32:02.480Z,2.35
2018-12-13T00:34:33.026Z,2.25
2018-12-13T00:37:03.605Z,2.53
2018-12-13T00:39:34.270Z,2.90
2018-12-13T00:42:04.846Z,2.88
2018-12-13T00:44:35.489Z,2.62
2018-12-13T00:47:06.164Z,2.54
2018-12-13T00:49:36.763Z,2.46
2018-12-13T00:52:07.290Z,2.87
2018-12-13T00:54:37.826Z,2.71
2018-12-13T00:57:08.352Z,2.23
2018-12-13T00:59:39.008Z,2.18
2018-12-13T01:02:09.546Z,2.11
2018-12-13T01:04:40.348Z,2.18
2018-12-13T01:07:11.376Z,2.19
2018-12-13T01:09:42.070Z,2.18
2018-12-13T01:12:12.579Z,2.17
2018-12-13T01:14:43.118Z,2.29
2018-12-13T01:17:13.646Z,2.36
2018-12-13T01:19:44.176Z,2.49
2018-12-13T01:22:14.647Z,2.41
2018-12-13T01:24:45.140Z,2.40
2018-12-13T01:27:15.701Z,2.57
2018-12-13T01:29:46.212Z,2.51
2018-12-13T01:32:16.754Z,2.71
2018-12-13T01:34:47.296Z,2.69
2018-12-13T01:37:17.807Z,2.99
2018-12-13T01:39:48.358Z,2.89
2018-12-13T01:42:18.942Z,2.78
2018-12-13T01:44:49.563Z,2.59
2018-12-13T01:47:20.509Z,2.58
2018-12-13T01:49:51.049Z,2.62
2018-12-13T01:52:21.614Z,2.78
2018-12-13T01:54:52.176Z,2.73
2018-12-13T01:57:22.809Z,2.58
2018-12-13T01:59:53.274Z,2.53
2018-12-13T02:02:23.780Z,2.49
2018-12-13T02:04:54.335Z,2.31
2018-12-13T02:07:24.905Z,2.54
2018-12-13T02:09:55.506Z,2.71
2018-12-13T02:12:26.078Z,2.74
2018-12-13T02:14:56.641Z,2.48
2018-12-13T02:17:27.190Z,2.42
2018-12-13T02:19:57.714Z,2.42
2018-12-13T02:22:28.284Z,2.45
2018-12-13T02:24:58.993Z,2.39
2018-12-13T02:27:29.517Z,2.48
2018-12-13T02:30:00.118Z,2.41
2018-12-13T02:32:30.683Z,2.36
2018-12-13T02:35:01.717Z,2.50
2018-12-13T02:37:32.751Z,2.59
2018-12-13T02:40:03.377Z,2.59
2018-12-13T02:42:33.990Z,2.39
2018-12-13T02:45:04.577Z,2.25
2018-12-13T02:47:35.273Z,2.25
2018-12-13T02:50:07.133Z,2.44
2018-12-13T02:52:37.824Z,2.28
2018-12-13T02:55:08.389Z,2.44
2018-12-13T02:57:38.970Z,2.34
2018-12-13T03:00:09.603Z,2.35
2018-12-13T03:02:42.230Z,2.72
2018-12-13T03:05:12.922Z,2.58
2018-12-13T03:07:43.481Z,2.51
2018-12-13T03:10:14.040Z,2.50
2018-12-13T03:12:45.244Z,2.53
2018-12-13T03:15:15.778Z,2.47
2018-12-13T03:17:46.338Z,2.41
2018-12-13T03:20:16.946Z,2.49
2018-12-13T03:22:47.470Z,2.46
2018-12-13T03:25:18.017Z,2.45
2018-12-13T03:27:48.545Z,2.37
2018-12-13T03:30:19.183Z,2.36
2018-12-13T03:32:49.966Z,2.33
2018-12-13T03:35:20.513Z,2.37
2018-12-13T03:37:53.070Z,2.32
2018-12-13T03:40:23.620Z,2.30
2018-12-13T03:42:54.346Z,2.36
2018-12-13T03:45:24.894Z,2.18
2018-12-13T03:47:55.386Z,2.25
2018-12-13T03:50:25.937Z,2.38
2018-12-13T03:52:56.487Z,2.31
2018-12-13T03:55:27.030Z,2.46
2018-12-13T03:57:57.579Z,2.26
2018-12-13T04:00:28.219Z,2.44
2018-12-13T04:02:58.761Z,2.26
2018-12-13T04:05:29.329Z,2.27
2018-12-13T04:08:01.008Z,2.38
2018-12-13T04:10:31.659Z,2.45
2018-12-13T04:13:02.218Z,2.59
2018-12-13T04:15:32.950Z,2.49
2018-12-13T04:18:03.527Z,2.40
2018-12-13T04:20:36.082Z,2.11
2018-12-13T04:23:06.721Z,2.23
2018-12-13T04:25:37.310Z,2.25
2018-12-13T04:28:07.911Z,2.39
2018-12-13T04:30:38.444Z,2.43
2018-12-13T04:33:08.949Z,2.21
2018-12-13T04:35:39.476Z,2.06
2018-12-13T04:38:10.005Z,2.33
2018-12-13T04:40:40.577Z,2.42
2018-12-13T04:43:11.166Z,2.29
2018-12-13T04:45:41.797Z,2.20
2018-12-13T04:48:12.343Z,2.30
2018-12-13T04:50:42.867Z,2.12
2018-12-13T04:53:13.425Z,2.08
2018-12-13T04:55:43.992Z,2.19
2018-12-13T04:58:14.535Z,2.29
2018-12-13T05:00:45.293Z,2.23
2018-12-13T05:03:15.802Z,2.14
2018-12-13T05:05:46.418Z,2.30
2018-12-13T05:08:17.941Z,2.29
2018-12-13T05:10:54.533Z,2.03
2018-12-13T05:13:25.183Z,2.12
2018-12-13T05:15:55.696Z,2.22
2018-12-13T05:18:26.282Z,2.03
2018-12-13T05:20:56.785Z,2.03
2018-12-13T05:23:27.274Z,2.01
2018-12-13T05:25:57.827Z,2.19
2018-12-13T05:28:28.381Z,2.10
2018-12-13T05:30:58.914Z,2.24
2018-12-13T05:33:29.480Z,2.14
2018-12-13T05:35:59.991Z,2.28
2018-12-13T05:38:30.574Z,2.07
2018-12-13T05:41:01.260Z,2.05
2018-12-13T05:43:31.798Z,2.24
2018-12-13T05:46:02.569Z,2.06
2018-12-13T05:48:33.224Z,2.10
2018-12-13T05:51:04.098Z,2.51
2018-12-13T05:53:34.600Z,3.09
2018-12-13T05:56:05.262Z,2.62
2018-12-13T05:58:35.829Z,2.80
2018-12-13T06:01:06.468Z,2.42
2018-12-13T06:03:37.017Z,2.45
2018-12-13T06:06:07.610Z,2.61
2018-12-13T06:08:38.274Z,2.64
2018-12-13T06:11:09.194Z,2.31
2018-12-13T06:13:39.827Z,2.07
2018-12-13T06:16:10.356Z,2.04
2018-12-13T06:18:41.023Z,2.08
2018-12-13T06:21:11.901Z,1.89
2018-12-13T06:23:42.770Z,1.89
2018-12-13T06:26:13.355Z,1.93
2018-12-13T06:28:44.517Z,1.76
2018-12-13T06:31:15.207Z,1.96
2018-12-13T06:33:45.863Z,1.97
2018-12-13T06:36:17.204Z,2.08
2018-12-13T06:38:47.890Z,1.94
2018-12-13T06:41:18.671Z,1.90
2018-12-13T06:43:49.363Z,1.61
2018-12-13T06:46:19.935Z,1.82
2018-12-13T06:48:50.580Z,1.73
2018-12-13T06:51:21.298Z,1.94
2018-12-13T06:53:51.900Z,1.95
2018-12-13T06:56:22.655Z,1.91
2018-12-13T06:58:53.238Z,1.96
2018-12-13T07:01:23.966Z,1.82
2018-12-13T07:03:54.639Z,1.70
2018-12-13T07:06:25.307Z,1.84
2018-12-13T07:08:55.897Z,1.84
2018-12-13T07:11:26.692Z,1.75
2018-12-13T07:13:57.362Z,1.90
2018-12-13T07:16:29.957Z,1.98
2018-12-13T07:19:00.788Z,2.05
2018-12-13T07:21:31.908Z,2.04
2018-12-13T07:24:02.726Z,2.08
2018-12-13T07:26:33.394Z,1.95
2018-12-13T07:32:10.115Z,1.97
2018-12-13T07:34:41.541Z,2.25
2018-12-13T07:37:14.915Z,2.10
2018-12-13T07:39:45.530Z,1.91
2018-12-13T07:42:16.451Z,2.16
2018-12-13T07:44:47.138Z,2.21
2018-12-13T07:47:17.813Z,2.17
2018-12-13T07:49:48.464Z,2.43
2018-12-13T07:52:19.147Z,2.35
2018-12-13T07:54:49.754Z,2.25
2018-12-13T07:57:20.409Z,2.12
2018-12-13T07:59:51.201Z,2.33
2018-12-13T08:02:21.835Z,2.32
2018-12-13T08:04:52.518Z,2.39
2018-12-13T08:07:23.104Z,2.37
2018-12-13T08:09:53.775Z,2.34
2018-12-13T08:12:24.544Z,2.32
2018-12-13T08:14:55.053Z,1.99
2018-12-13T08:17:25.593Z,2.36
2018-12-13T08:19:58.196Z,2.37
2018-12-13T08:22:28.763Z,2.23
2018-12-13T08:24:59.399Z,2.35
2018-12-13T08:27:29.911Z,2.04
2018-12-13T08:30:00.553Z,2.09
2018-12-13T08:32:31.150Z,2.26
2018-12-13T08:35:01.692Z,2.18
2018-12-13T08:37:32.282Z,2.19
2018-12-13T08:40:02.899Z,2.17
2018-12-13T08:42:34.844Z,2.14
2018-12-13T08:45:05.713Z,2.23
2018-12-13T08:50:23.190Z,2.22
2018-12-13T08:52:54.177Z,2.12
2018-12-13T08:55:24.686Z,2.34
2018-12-13T08:57:55.279Z,2.08
2018-12-13T09:00:25.789Z,2.37
2018-12-13T09:02:56.298Z,2.39
2018-12-13T09:05:26.886Z,2.38
2018-12-13T09:07:57.358Z,2.41
2018-12-13T09:10:27.903Z,1.99
2018-12-13T09:12:58.615Z,2.36
2018-12-13T09:15:29.574Z,2.13
2018-12-13T09:18:00.200Z,2.42
2018-12-13T09:20:30.718Z,2.32
2018-12-13T09:23:01.298Z,2.29
2018-12-13T09:25:31.959Z,2.32
2018-12-13T09:28:02.585Z,2.21
2018-12-13T09:30:33.529Z,2.15
2018-12-13T09:33:04.531Z,2.03
2018-12-13T09:35:35.229Z,2.22
2018-12-13T09:38:06.559Z,2.21
2018-12-13T09:40:37.132Z,2.08
2018-12-13T09:43:07.732Z,2.23
2018-12-13T09:45:38.247Z,2.30
2018-12-13T09:48:08.783Z,2.29
2018-12-13T09:50:39.559Z,2.32
2018-12-13T09:53:11.716Z,2.49
2018-12-13T09:55:42.203Z,2.34
2018-12-13T09:58:12.866Z,2.16
2018-12-13T10:00:43.392Z,2.17
2018-12-13T10:03:15.077Z,2.10
2018-12-13T10:05:45.647Z,2.14
2018-12-13T10:08:16.557Z,2.18
2018-12-13T10:10:47.085Z,1.94
2018-12-13T10:13:17.800Z,2.03
2018-12-13T10:15:48.270Z,2.27
2018-12-13T10:18:18.852Z,2.05
2018-12-13T10:20:49.361Z,2.28
2018-12-13T10:23:19.976Z,2.07
2018-12-13T10:25:50.790Z,2.05
2018-12-13T10:28:21.421Z,2.18
2018-12-13T10:30:51.968Z,2.25
2018-12-13T10:33:22.452Z,1.96
2018-12-13T10:35:53.014Z,2.00
2018-12-13T10:38:23.523Z,2.08
2018-12-13T10:40:54.088Z,1.93
2018-12-13T10:43:24.893Z,1.90
2018-12-13T10:45:55.429Z,2.07
2018-12-13T10:48:25.977Z,2.02
2018-12-13T10:50:56.626Z,2.14
2018-12-13T10:53:27.216Z,2.11
2018-12-13T10:55:57.799Z,1.87
2018-12-13T10:58:28.351Z,2.16
2018-12-13T11:01:04.028Z,1.78
2018-12-13T11:03:36.516Z,2.04
2018-12-13T11:06:07.070Z,2.16
2018-12-13T11:08:37.540Z,2.00
2018-12-13T11:11:08.098Z,1.78
2018-12-13T11:13:38.584Z,1.84
2018-12-13T11:16:09.117Z,1.81
2018-12-13T11:18:39.627Z,1.84
2018-12-13T11:21:10.166Z,1.97
2018-12-13T11:23:40.672Z,1.81
2018-12-13T11:26:11.156Z,1.74
2018-12-13T11:29:57.247Z,1.89
2018-12-13T11:32:27.771Z,1.83
2018-12-13T11:34:58.290Z,1.85
2018-12-13T11:37:30.024Z,1.98
2018-12-13T11:40:00.519Z,2.09
2018-12-13T11:42:31.014Z,1.90
2018-12-13T11:45:01.562Z,1.62
2018-12-13T11:47:32.571Z,1.71
2018-12-13T11:50:03.119Z,1.62
2018-12-13T11:52:33.645Z,1.90
2018-12-13T11:55:16.510Z,1.92
2018-12-13T11:57:48.150Z,1.96
2018-12-13T12:00:19.100Z,1.93
2018-12-13T12:02:50.712Z,1.93
2018-12-13T12:05:21.243Z,1.88
2018-12-13T12:07:51.729Z,1.80
2018-12-13T12:10:22.293Z,2.00
2018-12-13T12:12:52.800Z,1.75
2018-12-13T12:15:23.309Z,1.68
2018-12-13T12:17:53.874Z,1.69
2018-12-13T12:20:24.507Z,2.27
2018-12-13T12:22:54.994Z,2.23
2018-12-13T12:25:25.816Z,1.91
2018-12-13T12:27:57.502Z,1.60
2018-12-13T12:30:28.279Z,1.99
2018-12-13T12:32:58.726Z,1.75
2018-12-13T12:35:29.243Z,1.67
2018-12-13T12:37:59.719Z,1.91
2018-12-13T12:40:30.178Z,1.63
2018-12-13T12:43:00.717Z,1.48
2018-12-13T12:45:31.265Z,1.60
2018-12-13T12:48:01.947Z,1.65
2018-12-13T12:50:32.557Z,1.50
2018-12-13T12:53:03.141Z,1.65
2018-12-13T12:55:33.836Z,1.75
2018-12-13T12:58:04.539Z,1.79
2018-12-13T13:00:35.125Z,1.54
2018-12-13T13:03:05.703Z,1.38
2018-12-13T13:05:36.207Z,1.72
2018-12-13T13:08:06.720Z,1.47
2018-12-13T13:10:37.231Z,1.56
2018-12-13T13:13:07.761Z,1.59
2018-12-13T13:15:38.255Z,1.65
2018-12-13T13:18:08.836Z,1.64
2018-12-13T13:20:39.514Z,1.62
2018-12-13T13:23:10.098Z,1.37
2018-12-13T13:25:40.634Z,1.32
2018-12-13T13:28:11.226Z,1.23
2018-12-13T13:30:41.885Z,1.11
2018-12-13T13:33:15.383Z,1.21
2018-12-13T13:35:45.961Z,1.36
2018-12-13T13:38:16.489Z,1.35
2018-12-13T13:40:48.074Z,1.34
2018-12-13T13:43:18.744Z,1.21
2018-12-13T13:45:49.287Z,1.05
2018-12-13T13:48:20.529Z,1.40
2018-12-13T13:50:53.045Z,1.42
2018-12-13T13:53:23.551Z,1.50
2018-12-13T13:55:54.100Z,1.31
2018-12-13T13:58:25.612Z,1.02
2018-12-13T14:00:57.503Z,1.03
2018-12-13T14:03:29.088Z,1.05
2018-12-13T14:05:59.856Z,1.34
2018-12-13T14:08:32.423Z,1.38
2018-12-13T14:11:04.250Z,1.26
2018-12-13T14:13:35.083Z,1.19
2018-12-13T14:16:06.622Z,1.19
2018-12-13T14:18:38.814Z,0.94
2018-12-13T14:21:10.670Z,1.06
2018-12-13T14:23:43.747Z,1.46
2018-12-13T14:26:16.217Z,1.36
2018-12-13T14:28:46.839Z,1.03
2018-12-13T14:31:17.454Z,1.15
2018-12-13T14:33:48.070Z,1.02
2018-12-13T14:36:19.023Z,1.10
2018-12-13T14:38:49.593Z,1.26
2018-12-13T14:41:22.654Z,1.06
2018-12-13T14:44:12.400Z,1.13
2018-12-13T14:46:42.896Z,1.51
2018-12-13T14:49:13.717Z,1.33
2018-12-13T14:54:31.837Z,1.32
2018-12-13T14:57:03.110Z,1.45
2018-12-13T14:59:33.950Z,1.47
2018-12-13T15:02:05.985Z,1.27
2018-12-13T15:04:37.619Z,1.15
2018-12-13T15:07:09.902Z,1.43
2018-12-13T15:09:40.592Z,1.22
2018-12-13T15:12:11.409Z,1.15
2018-12-13T15:14:42.383Z,1.41
2018-12-13T15:17:13.015Z,1.32
2018-12-13T15:19:43.530Z,1.42
2018-12-13T15:22:14.179Z,1.77
2018-12-13T15:24:44.869Z,1.67
2018-12-13T15:27:15.483Z,0.88
2018-12-13T15:29:46.156Z,1.37
2018-12-13T15:32:16.982Z,1.63
2018-12-13T15:34:47.461Z,1.50
2018-12-13T15:37:18.017Z,1.54
2018-12-13T15:39:48.831Z,1.20
2018-12-13T15:42:19.507Z,1.30
2018-12-13T15:44:50.266Z,1.54
2018-12-13T15:47:20.975Z,1.66
2018-12-13T15:49:51.638Z,1.73
2018-12-13T15:52:22.418Z,1.49
2018-12-13T15:54:53.437Z,1.75
2018-12-13T15:57:25.231Z,1.56
2018-12-13T15:59:55.964Z,1.43
2018-12-13T16:02:28.581Z,1.53
2018-12-13T16:04:59.399Z,1.64
2018-12-13T16:07:30.164Z,1.04
2018-12-13T16:10:04.107Z,0.99
2018-12-13T16:12:34.046Z,1.07
2018-12-13T16:15:07.207Z,1.46
2018-12-13T16:17:38.014Z,1.67
2018-12-13T16:20:08.722Z,0.89
2018-12-13T16:22:45.906Z,0.79
2018-12-13T16:25:16.566Z,1.42
2018-12-13T16:27:47.376Z,1.77
2018-12-13T16:30:18.670Z,1.78
2018-12-13T16:32:50.421Z,1.69
2018-12-13T16:35:21.256Z,1.21
2018-12-13T16:37:52.086Z,1.46
2018-12-13T16:40:22.888Z,1.61
2018-12-13T16:42:53.723Z,1.24
2018-12-13T16:45:24.666Z,1.51
2018-12-13T16:47:55.532Z,1.60
2018-12-13T16:50:28.199Z,1.77
2018-12-13T16:53:00.399Z,1.87
2018-12-13T16:55:31.278Z,2.02
2018-12-13T16:58:02.360Z,1.73
2018-12-13T17:00:32.990Z,1.44
2018-12-13T17:03:19.491Z,1.11
2018-12-13T17:05:52.579Z,1.10
2018-12-13T17:08:23.884Z,1.40
2018-12-13T17:10:56.448Z,1.05
2018-12-13T17:13:27.398Z,1.02
2018-12-13T17:15:58.080Z,1.05
2018-12-13T17:18:28.960Z,1.04
2018-12-13T17:20:59.695Z,0.82
2018-12-13T17:23:30.485Z,1.31
2018-12-13T17:26:01.223Z,1.30
2018-12-13T17:28:33.378Z,0.95
2018-12-13T17:31:04.471Z,1.31
2018-12-13T17:33:35.387Z,1.37
2018-12-13T17:36:07.254Z,1.16
2018-12-13T17:38:38.207Z,0.92
2018-12-13T17:41:09.968Z,1.40
2018-12-13T17:43:41.648Z,1.31
2018-12-13T17:46:12.934Z,1.01
2018-12-13T17:48:43.641Z,1.33
2018-12-13T17:51:14.816Z,0.92
2018-12-13T17:53:45.487Z,1.37
2018-12-13T17:56:16.466Z,1.33
2018-12-13T17:58:46.991Z,1.22
2018-12-13T18:01:18.019Z,1.11
2018-12-13T18:03:49.065Z,1.07
2018-12-13T18:06:22.218Z,0.97
2018-12-13T18:08:53.030Z,1.27
2018-12-13T18:11:24.371Z,1.06
2018-12-13T18:13:56.625Z,0.74
2018-12-13T18:16:27.506Z,1.04
2018-12-13T18:18:58.602Z,0.91
2018-12-13T18:21:29.519Z,0.63
2018-12-13T18:24:00.598Z,0.74
2018-12-13T18:26:31.914Z,0.73
2018-12-13T18:29:02.791Z,1.03
2018-12-13T18:31:33.648Z,0.68
2018-12-13T18:34:04.970Z,0.67
2018-12-13T18:36:35.731Z,0.85
2018-12-13T18:39:08.926Z,0.50
2018-12-13T18:41:40.198Z,0.58
2018-12-13T18:44:11.090Z,0.73
2018-12-13T18:46:42.026Z,0.57
2018-12-13T18:49:12.717Z,0.70
2018-12-13T18:51:43.290Z,0.75
2018-12-13T18:54:14.768Z,0.66
2018-12-13T18:56:46.661Z,0.87
2018-12-13T18:59:17.338Z,0.83
2018-12-13T19:01:48.005Z,0.72
2018-12-13T19:04:18.673Z,0.49
2018-12-13T19:06:49.450Z,0.70
2018-12-13T19:09:20.199Z,0.41
2018-12-13T19:11:51.499Z,0.55
2018-12-13T19:14:22.159Z,0.46
2018-12-13T19:16:53.666Z,0.48
2018-12-13T19:19:24.374Z,0.68
2018-12-13T19:21:55.032Z,0.74
2018-12-13T19:24:25.742Z,0.34
2018-12-13T19:29:44.421Z,0.47
2018-12-13T19:32:15.455Z,0.55
2018-12-13T19:34:46.114Z,0.42
2018-12-13T19:37:16.886Z,0.57
2018-12-13T19:39:47.977Z,0.43
2018-12-13T19:42:18.694Z,0.44
2018-12-13T19:44:51.026Z,0.13
2018-12-13T19:47:22.264Z,0.21
2018-12-13T19:49:54.573Z,0.36
2018-12-13T19:52:27.198Z,0.44
2018-12-13T19:54:58.022Z,0.21
2018-12-13T19:57:28.629Z,0.50
2018-12-13T19:59:59.288Z,0.16
2018-12-13T20:02:30.086Z,0.27
2018-12-13T20:05:01.090Z,0.28
2018-12-13T20:07:32.083Z,0.32
2018-12-13T20:10:02.851Z,0.35
2018-12-13T20:12:33.639Z,0.20
2018-12-13T20:15:04.264Z,0.56
2018-12-13T20:17:35.427Z,0.76
2018-12-13T20:20:07.048Z,0.71
2018-12-13T20:22:38.329Z,0.65
2018-12-13T20:25:10.013Z,0.53
2018-12-13T20:27:40.575Z,0.29
2018-12-13T20:30:11.136Z,0.36
2018-12-13T20:32:41.758Z,0.71
2018-12-13T20:35:12.812Z,0.67
2018-12-13T20:37:43.528Z,0.51
2018-12-13T20:40:14.235Z,0.74
2018-12-13T20:42:44.737Z,0.47
2018-12-13T20:45:15.725Z,0.44
2018-12-13T20:47:47.425Z,0.52
2018-12-13T20:50:18.880Z,0.59
2018-12-13T20:52:49.519Z,0.87
2018-12-13T20:55:21.013Z,0.71
2018-12-13T20:57:51.736Z,0.56
2018-12-13T21:00:22.874Z,0.85
2018-12-13T21:02:53.482Z,0.43
2018-12-13T21:05:24.102Z,0.48
2018-12-13T21:07:59.119Z,0.52
2018-12-13T21:10:30.349Z,0.54
2018-12-13T21:13:00.893Z,0.54
2018-12-13T21:15:31.517Z,0.55
2018-12-13T21:18:02.494Z,0.64
2018-12-13T21:20:32.997Z,0.54
2018-12-13T21:23:03.862Z,0.82
2018-12-13T21:25:34.884Z,0.51
2018-12-13T21:28:05.674Z,0.51
2018-12-13T21:30:36.298Z,0.44
2018-12-13T21:33:06.959Z,0.43
2018-12-13T21:35:37.733Z,0.34
2018-12-13T21:38:09.355Z,0.24
2018-12-13T21:40:41.829Z,0.39
2018-12-13T21:43:12.662Z,0.41
2018-12-13T21:45:43.251Z,0.46
2018-12-13T21:48:14.029Z,0.43
2018-12-13T21:50:44.843Z,0.49
2018-12-13T21:53:15.598Z,0.66
2018-12-13T21:55:47.529Z,0.52
2018-12-13T21:58:18.199Z,0.50
2018-12-13T22:00:49.595Z,0.23
2018-12-13T22:03:28.701Z,0.78
2018-12-13T22:06:00.696Z,0.68
2018-12-13T22:08:31.656Z,0.77
2018-12-13T22:11:02.447Z,0.75
2018-12-13T22:13:33.381Z,0.49
2018-12-13T22:16:04.140Z,0.39
2018-12-13T22:18:35.954Z,0.54
2018-12-13T22:21:06.737Z,0.49
2018-12-13T22:23:37.336Z,0.56
2018-12-13T22:26:09.038Z,0.65
2018-12-13T22:28:46.224Z,0.59
2018-12-13T22:31:17.762Z,0.53
2018-12-13T22:33:48.329Z,0.49
2018-12-13T22:36:18.962Z,0.66
2018-12-13T22:38:50.178Z,0.92
2018-12-13T22:41:26.186Z,1.07
2018-12-13T22:43:53.723Z,1.19
2018-12-13T22:46:24.260Z,0.77
2018-12-13T22:48:54.782Z,0.57
2018-12-13T22:51:25.350Z,0.51
2018-12-13T22:53:55.899Z,1.01
2018-12-13T22:56:26.430Z,0.69
2018-12-13T22:58:56.955Z,0.77
2018-12-13T23:01:27.465Z,0.51
2018-12-13T23:03:58.174Z,0.78
2018-12-13T23:06:28.747Z,0.93
2018-12-13T23:08:59.303Z,1.12
2018-12-13T23:11:32.658Z,1.02
2018-12-13T23:14:03.578Z,0.79
2018-12-13T23:16:34.183Z,0.88
2018-12-13T23:19:04.830Z,0.89
2018-12-13T23:21:35.421Z,0.58
2018-12-13T23:24:06.196Z,0.81
2018-12-13T23:26:37.040Z,1.01
2018-12-13T23:29:07.887Z,0.78
2018-12-13T23:31:38.363Z,0.76
2018-12-13T23:34:08.910Z,0.98
2018-12-13T23:36:39.475Z,1.02
2018-12-13T23:39:10.146Z,0.93
2018-12-13T23:41:40.948Z,0.89
2018-12-13T23:44:11.614Z,1.06
2018-12-13T23:46:42.151Z,0.88
2018-12-13T23:49:12.769Z,1.01
2018-12-13T23:51:43.750Z,0.96
2018-12-13T23:54:14.452Z,0.66
2018-12-13T23:56:45.000Z,0.81
2018-12-13T23:59:17.756Z,0.94
